Time;durP1;ratioP1;P1;durP2;ratioP2;P2;SDS_P1;SDS_P2;PMS_P1;PMS_P2;Temp;Humidity;BMP_temperature;BMP_pressure;BME280_temperature;BME280_humidity;BME280_pressure;Samples;Min_cycle;Max_cycle;Signal;HPM_P1;HPM_P2
2022/09/10 00:01:16;;;;;;;5.32;3.80;;;;;;;16.81;100.00;90985.44;5135348;27;20054;-66
2022/09/10 00:03:44;;;;;;;6.90;4.45;;;;;;;16.76;100.00;90987.28;5135337;27;20027;-65
2022/09/10 00:06:10;;;;;;;9.82;4.28;;;;;;;16.70;100.00;90993.22;5135232;27;20912;-65
2022/09/10 00:08:38;;;;;;;6.88;4.15;;;;;;;16.67;100.00;90986.63;5135013;27;20105;-66
2022/09/10 00:11:08;;;;;;;8.38;3.90;;;;;;;16.65;100.00;90985.41;5135157;27;20106;-65
2022/09/10 00:13:36;;;;;;;5.15;4.32;;;;;;;16.58;100.00;90985.22;5135089;27;20101;-65
2022/09/10 00:16:03;;;;;;;8.00;4.25;;;;;;;16.48;100.00;90991.84;5135046;27;20031;-65
2022/09/10 00:18:29;;;;;;;5.80;4.30;;;;;;;16.43;100.00;91000.94;5135201;27;20540;-65
2022/09/10 00:20:56;;;;;;;4.97;3.97;;;;;;;16.41;100.00;91005.06;5134943;27;20117;-65
2022/09/10 00:23:25;;;;;;;5.72;4.32;;;;;;;16.41;100.00;90994.34;5134920;27;20027;-65
2022/09/10 00:25:52;;;;;;;6.68;3.58;;;;;;;16.44;100.00;91005.19;5134877;27;20043;-65
2022/09/10 00:28:19;;;;;;;4.63;3.65;;;;;;;16.39;100.00;90986.63;5134952;27;20015;-65
2022/09/10 00:30:47;;;;;;;6.80;4.25;;;;;;;16.44;100.00;90988.28;5134795;27;20118;-65
2022/09/10 00:33:14;;;;;;;6.93;3.53;;;;;;;16.42;100.00;90980.59;5134766;27;20027;-65
2022/09/10 00:35:40;;;;;;;5.53;3.80;;;;;;;16.32;100.00;90975.69;5116262;27;20031;-65
2022/09/10 00:38:07;;;;;;;12.23;4.38;;;;;;;16.34;100.00;90969.97;5134517;27;20035;-65
2022/09/10 00:40:33;;;;;;;6.60;3.83;;;;;;;16.30;100.00;90975.25;5134255;27;20031;-65
2022/09/10 00:42:59;;;;;;;4.28;3.42;;;;;;;16.29;100.00;90980.97;5134517;27;20110;-65
2022/09/10 00:45:30;;;;;;;7.20;4.65;;;;;;;16.31;100.00;90968.78;5134524;27;20118;-65
2022/09/10 00:48:00;;;;;;;7.15;4.18;;;;;;;16.30;100.00;90966.44;5134079;27;20055;-65
2022/09/10 00:50:30;;;;;;;8.05;4.20;;;;;;;16.25;100.00;90982.75;5134321;27;20400;-65
2022/09/10 00:53:00;;;;;;;11.52;5.05;;;;;;;16.36;100.00;90981.94;5134324;27;20043;-65
2022/09/10 00:55:26;;;;;;;5.38;3.70;;;;;;;16.37;100.00;90983.50;5134272;27;20058;-65
2022/09/10 00:57:55;;;;;;;7.07;4.35;;;;;;;16.37;100.00;90991.56;5134156;27;20496;-65
2022/09/10 01:00:21;;;;;;;5.20;3.72;;;;;;;16.41;100.00;90995.13;5134276;27;20461;-65
2022/09/10 01:02:47;;;;;;;5.13;3.60;;;;;;;16.43;100.00;90984.06;5134125;27;20543;-65
2022/09/10 01:05:13;;;;;;;5.55;4.55;;;;;;;16.34;100.00;90994.94;5134051;27;20048;-65
2022/09/10 01:07:39;;;;;;;10.70;4.65;;;;;;;16.42;100.00;90982.50;5133913;27;20473;-65
2022/09/10 01:10:27;;;;;;;4.55;3.92;;;;;;;16.43;100.00;90982.16;5134032;27;20035;-65
2022/09/10 01:13:30;;;;;;;6.50;4.03;;;;;;;16.44;100.00;90967.59;5133939;27;20026;-65
2022/09/10 01:16:15;;;;;;;4.57;3.97;;;;;;;16.43;100.00;90971.41;5133919;27;20473;-65
2022/09/10 01:18:48;;;;;;;7.18;4.15;;;;;;;16.44;100.00;90972.19;5133745;27;20065;-65
2022/09/10 01:21:23;;;;;;;6.82;4.05;;;;;;;16.49;100.00;90966.56;5133764;27;20023;-65
2022/09/10 01:24:16;;;;;;;7.47;3.90;;;;;;;16.51;100.00;90956.25;5133760;27;20411;-64
2022/09/10 01:27:19;;;;;;;6.90;4.20;;;;;;;16.47;100.00;90961.53;5133612;27;20084;-65
2022/09/10 01:29:52;;;;;;;5.97;3.83;;;;;;;16.55;100.00;90956.34;5133621;27;20051;-65
2022/09/10 01:32:31;;;;;;;9.88;4.05;;;;;;;16.62;100.00;90951.16;5133608;27;20127;-65
2022/09/10 01:35:14;;;;;;;7.53;4.47;;;;;;;16.61;100.00;90947.72;5133490;27;20023;-66
2022/09/10 01:37:46;;;;;;;4.97;3.88;;;;;;;16.61;100.00;90949.63;5133383;27;20031;-65
2022/09/10 01:40:13;;;;;;;6.97;3.17;;;;;;;16.61;100.00;90945.03;5133451;27;20031;-65
2022/09/10 01:42:38;;;;;;;6.70;3.63;;;;;;;16.55;100.00;90949.06;5133320;27;20068;-65
2022/09/10 01:45:05;;;;;;;5.85;3.53;;;;;;;16.54;100.00;90955.56;5133268;27;20431;-65
2022/09/10 01:47:34;;;;;;;6.75;3.55;;;;;;;16.52;100.00;90947.06;5133091;27;20046;-66
2022/09/10 01:50:02;;;;;;;5.55;3.58;;;;;;;16.58;100.00;90942.25;5133154;27;20390;-66
2022/09/10 01:52:38;;;;;;;11.23;3.92;;;;;;;16.53;100.00;90929.84;5132472;27;20035;-65
2022/09/10 01:55:30;;;;;;;6.55;2.72;;;;;;;16.63;100.00;90939.31;5133230;27;20096;-65
2022/09/10 01:58:32;;;;;;;7.28;3.20;;;;;;;16.62;100.00;90941.22;5114554;27;20043;-65
2022/09/10 02:01:10;;;;;;;7.78;3.42;;;;;;;16.65;100.00;90942.41;5133248;27;20027;-65
2022/09/10 02:03:38;;;;;;;5.15;3.25;;;;;;;16.62;100.00;90949.25;5133000;27;20041;-65
2022/09/10 02:06:06;;;;;;;8.32;3.75;;;;;;;16.68;100.00;90955.97;5215504;22;20083;-63
2022/09/10 02:08:36;;;;;;;3.90;3.10;;;;;;;16.86;100.00;90945.66;5051574;28;20063;-63
2022/09/10 02:11:08;;;;;;;9.77;3.55;;;;;;;16.88;100.00;90950.69;5051665;28;20071;-63
2022/09/10 02:13:35;;;;;;;5.65;3.88;;;;;;;16.92;100.00;90955.06;5051657;28;20021;-63
2022/09/10 02:16:05;;;;;;;7.45;3.35;;;;;;;16.90;100.00;90945.78;5051527;28;20067;-63
2022/09/10 02:18:34;;;;;;;7.20;3.28;;;;;;;16.95;100.00;90956.25;5051518;28;20044;-63
2022/09/10 02:21:02;;;;;;;7.47;3.88;;;;;;;17.04;100.00;90956.84;5051473;28;20029;-63
2022/09/10 02:23:39;;;;;;;8.70;5.13;;;;;;;17.00;100.00;90956.00;5051438;28;20024;-63
2022/09/10 02:26:05;;;;;;;5.18;3.80;;;;;;;17.01;100.00;90961.03;5051292;28;20482;-63
2022/09/10 02:28:31;;;;;;;3.90;3.17;;;;;;;16.87;100.00;90951.81;5051225;28;20064;-63
2022/09/10 02:30:56;;;;;;;5.30;3.33;;;;;;;16.85;100.00;90968.28;5051357;28;20029;-63
2022/09/10 02:33:22;;;;;;;5.72;3.50;;;;;;;16.89;100.00;90965.72;5051362;28;20087;-64
2022/09/10 02:35:48;;;;;;;5.45;3.58;;;;;;;16.92;100.00;90968.50;5051280;28;20108;-64
2022/09/10 02:38:15;;;;;;;4.35;3.78;;;;;;;16.99;100.00;90963.28;5051218;28;20031;-64
2022/09/10 02:40:42;;;;;;;4.82;3.60;;;;;;;17.09;100.00;90969.28;5051514;28;20041;-64
2022/09/10 02:43:07;;;;;;;6.18;3.90;;;;;;;17.14;100.00;90955.56;5051241;28;20081;-64
2022/09/10 02:45:33;;;;;;;5.53;3.20;;;;;;;17.23;100.00;90966.94;5051149;28;20107;-64
2022/09/10 02:47:59;;;;;;;7.43;3.78;;;;;;;17.21;100.00;90961.13;5051410;28;20021;-64
2022/09/10 02:50:24;;;;;;;4.15;3.38;;;;;;;17.21;100.00;90969.97;5051420;28;20025;-64
2022/09/10 02:52:50;;;;;;;7.70;3.97;;;;;;;17.20;100.00;90954.97;5051118;28;20031;-64
2022/09/10 02:55:16;;;;;;;7.43;3.97;;;;;;;17.14;100.00;90960.94;5051022;28;20048;-64
2022/09/10 02:57:42;;;;;;;7.68;4.32;;;;;;;17.14;100.00;90960.94;5050997;28;20025;-64
2022/09/10 03:00:09;;;;;;;4.53;4.03;;;;;;;17.20;100.00;90956.84;5051096;28;20113;-64
2022/09/10 03:02:35;;;;;;;5.53;3.83;;;;;;;17.18;100.00;90951.03;5051074;28;20567;-64
2022/09/10 03:05:03;;;;;;;11.27;4.15;;;;;;;17.21;100.00;90953.06;5054085;28;20099;-64
2022/09/10 03:07:29;;;;;;;6.57;3.50;;;;;;;17.21;100.00;90955.75;5055142;28;20383;-64
2022/09/10 03:09:55;;;;;;;6.95;4.07;;;;;;;17.24;100.00;90957.75;5055167;28;20029;-64
2022/09/10 03:12:20;;;;;;;6.88;4.22;;;;;;;17.18;100.00;90956.41;5055087;28;20040;-64
2022/09/10 03:14:46;;;;;;;7.07;3.70;;;;;;;17.08;100.00;90951.59;5054964;28;20044;-64
2022/09/10 03:17:11;;;;;;;7.18;3.80;;;;;;;17.08;100.00;90954.28;5054905;28;20029;-64
2022/09/10 03:19:38;;;;;;;8.40;4.80;;;;;;;17.12;100.00;90952.44;5054955;28;20116;-64
2022/09/10 03:22:04;;;;;;;5.10;3.55;;;;;;;17.05;100.00;90936.94;5054884;28;20490;-64
2022/09/10 03:24:30;;;;;;;5.20;3.15;;;;;;;17.06;100.00;90941.97;5054722;28;20033;-65
2022/09/10 03:26:56;;;;;;;7.78;3.90;;;;;;;17.14;100.00;90947.50;5054802;28;20052;-64
2022/09/10 03:29:21;;;;;;;6.85;3.65;;;;;;;17.10;100.00;90952.78;5054744;28;20104;-65
2022/09/10 03:31:50;;;;;;;4.32;3.60;;;;;;;16.99;100.00;90949.84;5054684;28;20116;-64
2022/09/10 03:34:15;;;;;;;5.40;3.58;;;;;;;16.85;100.00;90941.41;5054769;28;20033;-65
2022/09/10 03:36:40;;;;;;;5.50;3.67;;;;;;;16.70;100.00;90934.13;5054578;28;20033;-65
2022/09/10 03:39:06;;;;;;;6.10;4.10;;;;;;;16.69;100.00;90940.63;5054514;28;20104;-64
2022/09/10 03:41:31;;;;;;;6.63;4.32;;;;;;;16.69;100.00;90940.63;5054499;28;20406;-64
2022/09/10 03:43:57;;;;;;;8.50;4.43;;;;;;;16.70;100.00;90931.44;5054681;28;20108;-64
2022/09/10 03:46:23;;;;;;;5.78;3.67;;;;;;;16.86;100.00;90934.91;5054251;28;20048;-64
2022/09/10 03:48:49;;;;;;;4.72;4.05;;;;;;;16.95;100.00;90927.47;5054371;28;20029;-64
2022/09/10 03:51:15;;;;;;;7.47;3.67;;;;;;;16.97;100.00;90913.69;5054333;28;20127;-64
2022/09/10 03:53:42;;;;;;;7.30;3.75;;;;;;;16.96;100.00;90904.84;5054312;28;20107;-64
2022/09/10 03:56:09;;;;;;;10.63;3.97;;;;;;;16.90;100.00;90902.78;5054169;28;20053;-64
2022/09/10 03:58:34;;;;;;;4.40;3.58;;;;;;;16.87;100.00;90896.16;5054169;28;20029;-65
2022/09/10 04:01:01;;;;;;;6.32;4.43;;;;;;;16.85;100.00;90884.22;5054411;28;20056;-65
2022/09/10 04:03:27;;;;;;;5.20;3.85;;;;;;;16.77;100.00;90891.34;5054439;28;20032;-65
2022/09/10 04:05:52;;;;;;;5.05;3.53;;;;;;;16.76;100.00;90887.09;5053850;28;20399;-65
2022/09/10 04:08:17;;;;;;;5.20;4.00;;;;;;;16.76;100.00;90887.09;5053945;28;20017;-65
2022/09/10 04:10:43;;;;;;;8.25;4.43;;;;;;;16.79;100.00;90899.81;5054032;28;20029;-65
2022/09/10 04:13:09;;;;;;;6.93;4.97;;;;;;;16.84;100.00;90910.31;5053959;28;20036;-64
2022/09/10 04:15:38;;;;;;;6.60;4.25;;;;;;;16.80;100.00;90914.81;5053424;28;20070;-64
2022/09/10 04:18:05;;;;;;;9.35;4.97;;;;;;;16.81;100.00;90916.38;5053819;28;20108;-64
2022/09/10 04:20:32;;;;;;;7.57;4.82;;;;;;;16.81;100.00;90931.72;5053755;28;20037;-64
2022/09/10 04:22:57;;;;;;;6.10;4.60;;;;;;;16.75;100.00;90944.63;5053782;28;20516;-64
2022/09/10 04:25:23;;;;;;;11.18;5.70;;;;;;;16.69;100.00;90954.06;5053627;28;20033;-64
2022/09/10 04:27:48;;;;;;;9.15;6.75;;;;;;;16.67;100.00;90967.06;5053658;28;20023;-64
2022/09/10 04:30:15;;;;;;;11.93;7.43;;;;;;;16.65;100.00;90971.97;5053567;28;20406;-64
2022/09/10 04:32:41;;;;;;;12.02;6.07;;;;;;;16.64;100.00;90970.41;5053525;28;20079;-64
2022/09/10 04:35:07;;;;;;;13.07;6.30;;;;;;;16.58;100.00;90961.81;5053422;28;20494;-64
2022/09/10 04:37:33;;;;;;;11.38;6.03;;;;;;;16.64;100.00;90959.66;5053433;28;20104;-64
2022/09/10 04:39:59;;;;;;;16.92;10.30;;;;;;;16.56;100.00;90957.91;5053476;28;20547;-64
2022/09/10 04:42:25;;;;;;;10.75;6.32;;;;;;;16.56;100.00;90963.28;5053419;28;20053;-64
2022/09/10 04:44:50;;;;;;;13.07;6.32;;;;;;;16.64;100.00;90959.66;5053233;28;20438;-64
2022/09/10 04:47:17;;;;;;;11.88;6.65;;;;;;;16.56;100.00;90957.91;5053187;28;20032;-64
2022/09/10 04:49:42;;;;;;;9.98;7.07;;;;;;;16.68;100.00;90982.03;5053140;28;20037;-64
2022/09/10 04:52:10;;;;;;;15.27;7.95;;;;;;;16.76;100.00;90979.22;5053119;28;20033;-64
2022/09/10 04:54:36;;;;;;;8.90;7.30;;;;;;;16.82;100.00;90978.94;5052937;28;20414;-64
2022/09/10 04:57:03;;;;;;;13.77;8.45;;;;;;;16.81;100.00;90969.34;5053243;28;20116;-64
2022/09/10 04:59:28;;;;;;;18.70;11.25;;;;;;;16.98;100.00;90977.06;5052848;28;20029;-64
2022/09/10 05:01:54;;;;;;;10.70;7.00;;;;;;;17.11;100.00;90973.16;5052923;28;20078;-64
2022/09/10 05:04:20;;;;;;;10.88;7.07;;;;;;;17.21;100.00;90964.59;5052581;28;20500;-65
2022/09/10 05:06:48;;;;;;;10.43;7.05;;;;;;;17.28;100.00;90958.59;5052923;28;20029;-64
2022/09/10 05:09:14;;;;;;;11.50;6.30;;;;;;;17.28;100.00;90959.38;5052841;28;20056;-64
2022/09/10 05:11:40;;;;;;;12.52;6.50;;;;;;;17.52;100.00;90961.09;5052764;28;20462;-64
2022/09/10 05:14:06;;;;;;;8.65;5.82;;;;;;;17.50;100.00;90957.94;5052690;28;20029;-64
2022/09/10 05:16:31;;;;;;;6.10;4.70;;;;;;;17.54;100.00;90947.28;5052574;28;20136;-64
2022/09/10 05:18:58;;;;;;;12.77;5.82;;;;;;;17.60;100.00;90945.88;5052542;28;20120;-64
2022/09/10 05:21:23;;;;;;;8.95;4.97;;;;;;;17.81;100.00;90945.59;5052564;28;20079;-64
2022/09/10 05:23:48;;;;;;;9.88;5.88;;;;;;;17.86;100.00;90945.34;5052507;28;20037;-64
2022/09/10 05:26:14;;;;;;;7.80;4.90;;;;;;;17.72;100.00;90950.41;5052349;28;20569;-64
2022/09/10 05:28:41;;;;;;;15.55;11.60;;;;;;;17.72;100.00;90953.88;5051315;28;20037;-64
2022/09/10 05:31:08;;;;;;;15.02;9.30;;;;;;;17.89;100.00;90948.09;5052239;28;20449;-64
2022/09/10 05:33:34;;;;;;;13.02;7.68;;;;;;;18.14;100.00;90956.69;5052595;28;20052;-64
2022/09/10 05:36:00;;;;;;;7.82;5.80;;;;;;;18.36;100.00;90962.50;5052473;28;20021;-64
2022/09/10 05:38:25;;;;;;;6.90;5.50;;;;;;;18.36;100.00;90963.28;5052101;28;20501;-64
2022/09/10 05:40:51;;;;;;;11.73;5.65;;;;;;;18.15;100.00;90963.66;5052193;28;20426;-64
2022/09/10 05:43:16;;;;;;;9.00;5.97;;;;;;;18.04;100.00;90964.56;5052366;28;20037;-64
2022/09/10 05:45:41;;;;;;;8.48;5.88;;;;;;;18.04;100.00;90957.25;5052037;28;20051;-64
2022/09/10 05:48:07;;;;;;;19.35;8.45;;;;;;;18.01;100.00;90951.81;5052102;28;20124;-64
2022/09/10 05:50:33;;;;;;;32.35;16.38;;;;;;;18.06;100.00;90938.84;5051941;28;20111;-64
2022/09/10 05:52:59;;;;;;;8.65;6.38;;;;;;;18.14;100.00;90931.66;5051918;28;20025;-64
2022/09/10 05:55:25;;;;;;;10.35;6.10;;;;;;;18.32;100.00;90927.44;5051830;28;20024;-64
2022/09/10 05:57:50;;;;;;;14.30;6.53;;;;;;;18.39;100.00;90934.88;5051807;28;20043;-64
2022/09/10 06:00:15;;;;;;;11.75;6.97;;;;;;;18.35;100.00;90939.41;5051773;28;20078;-64
2022/09/10 06:02:41;;;;;;;9.77;6.57;;;;;;;18.26;100.00;90945.78;5051807;28;20486;-64
2022/09/10 06:05:07;;;;;;;44.13;24.83;;;;;;;18.27;100.00;90947.34;5051612;28;20480;-64
2022/09/10 06:07:33;;;;;;;9.30;6.65;;;;;;;18.26;100.00;90924.22;5051778;28;20056;-64
2022/09/10 06:10:01;;;;;;;9.55;6.63;;;;;;;18.49;100.00;90916.22;5051748;28;20063;-64
2022/09/10 06:12:27;;;;;;;8.77;5.93;;;;;;;18.57;100.00;90900.94;5051661;28;20493;-64
2022/09/10 06:14:52;;;;;;;12.20;6.28;;;;;;;18.92;100.00;90903.50;5051608;28;20029;-64
2022/09/10 06:17:18;;;;;;;11.38;6.72;;;;;;;19.16;100.00;90913.16;5051743;28;20029;-68
2022/09/10 06:19:44;;;;;;;11.23;7.15;;;;;;;19.42;100.00;90923.22;5051516;28;20056;-66
